00:06
Airports
History
Links
Donate
Help keep this website running!
PayPal
Bitcoin
This page is community maintained. The information is intended for PC simulator navigation or reference.
Always use approved charts for navigation.
SNRS
Russas
Russas (SNRS)
Russas, Ceará, Brazil (62900)
(C)
Lat/Lng:4° 56' 50.16" S / 38° 0' 29.58" W
-4.947267 / -38.008218
Elevation:115'ft / 35mMSL
ID / ICAO:SNRS
Runways:1
Longest:08-26
Asphalt 1,078m / 3,538ft
Controlled:Yes
Nearby Weather21:00 GMT 2017-10-16
Nearby weather at SBMS, DIX SEPT ROSADO located 47.7 nautical miles from SNRS
Altimeter: 29.88
Visibility: 6.2 statute miles
Wind: 17 knots (from 040°)
Temp: 28°c / 82°f
Humidity: 69.9%

METAR: SBMS 162100Z 04017KT 9999 FEW030 28/22 Q1012

(Powered by phpweather)
Runway 08 / 26
Dimensions:1078.3 x 27.4m 3538' x 90'ft
Surface:Asphalt
Runway 08 [A]Runway 26 [B]
Heading:055°TH 235°TH
Lat:
Lng:
4° 57' 0.08"S
38° 0' 44.09"W
4° 56' 40.24"S
38° 0' 15.08"W
User Notes and Comments
4° 56' 50.16" S / 38° 0' 29.58" W
Distance To
Airport ID:
Nearby Airports
4 Vicente Jose 11.8 NM
SNYZ NW 307°
(C) Morada Nova 27.5 NM
SNMO WSW 249°
(C) Aracati 29.9 NM
SNAT NNE 28°
(U) MAISA 34.3 NM
SNOO E 98°
(C) DIX SEPT ROSADO 47.7 NM
SBMS ( WX ) ESE 111°
4 Darinha 59.8 NM
SWWZ NNW 343°
4 Sitio Vodo 61.1 NM
SNYX NNW 344°
VFR Chart
Flight Planning at SkyVector.com